createdAt,value
2023-01-01T00:00:28.724Z,601.40
2023-01-01T00:02:56.402Z,628.80
2023-01-01T00:05:23.141Z,634.23
2023-01-01T00:07:49.891Z,633.10
2023-01-01T00:10:28.778Z,616.80
2023-01-01T00:12:59.758Z,642.10
2023-01-01T00:15:27.555Z,670.43
2023-01-01T00:17:54.997Z,674.60
2023-01-01T00:20:21.822Z,703.03
2023-01-01T00:22:56.519Z,644.23
2023-01-01T00:25:23.825Z,618.73
2023-01-01T00:27:50.753Z,581.67
2023-01-01T00:30:17.617Z,618.27
2023-01-01T00:32:54.345Z,582.70
2023-01-01T00:35:22.098Z,609.53
2023-01-01T00:37:51.979Z,648.93
2023-01-01T00:40:18.958Z,626.70
2023-01-01T00:42:45.780Z,727.17
2023-01-01T00:45:18.792Z,737.23
2023-01-01T00:47:48.075Z,742.80
2023-01-01T00:50:14.944Z,723.17
2023-01-01T00:52:41.981Z,695.50
2023-01-01T00:55:09.235Z,656.50
2023-01-01T00:57:36.036Z,674.00
2023-01-01T01:00:05.467Z,689.70
2023-01-01T01:02:32.440Z,708.60
2023-01-01T01:04:59.292Z,694.30
2023-01-01T01:07:26.004Z,663.60
2023-01-01T01:09:52.753Z,675.20
2023-01-01T01:12:19.478Z,635.03
2023-01-01T01:14:46.928Z,617.20
2023-01-01T01:17:13.780Z,568.97
2023-01-01T01:19:40.546Z,611.33
2023-01-01T01:22:07.367Z,709.93
2023-01-01T01:24:34.215Z,679.77
2023-01-01T01:27:01.042Z,694.70
2023-01-01T01:29:27.843Z,699.83
2023-01-01T01:31:54.611Z,645.57
2023-01-01T01:34:27.505Z,656.80
2023-01-01T01:36:54.996Z,649.90
2023-01-01T01:39:22.497Z,605.67
2023-01-01T01:41:49.901Z,610.03
2023-01-01T01:44:44.222Z,588.40
2023-01-01T01:47:34.357Z,567.07
2023-01-01T01:50:13.650Z,553.10
2023-01-01T01:52:47.918Z,506.27
2023-01-01T01:55:14.893Z,468.63
2023-01-01T01:57:42.115Z,451.90
2023-01-01T02:00:11.500Z,423.93
2023-01-01T02:03:08.067Z,455.00
2023-01-01T02:05:36.044Z,439.97
2023-01-01T02:08:04.895Z,417.10
2023-01-01T02:10:32.220Z,377.83
2023-01-01T02:12:59.322Z,339.87
2023-01-01T02:15:30.641Z,316.73
2023-01-01T02:18:03.969Z,297.07
2023-01-01T02:20:39.267Z,281.93
2023-01-01T02:23:30.765Z,325.83
2023-01-01T02:26:16.128Z,255.73
2023-01-01T02:29:04.550Z,233.07
2023-01-01T02:31:46.463Z,228.73
2023-01-01T02:34:16.264Z,232.33
2023-01-01T02:36:50.662Z,243.30
2023-01-01T02:39:21.759Z,199.50
2023-01-01T02:41:52.561Z,172.60
2023-01-01T02:44:21.533Z,157.93
2023-01-01T02:46:48.499Z,165.13
2023-01-01T02:49:15.259Z,135.10
2023-01-01T02:52:02.920Z,146.90
2023-01-01T02:54:57.768Z,152.33
2023-01-01T02:57:41.540Z,159.93
2023-01-01T03:00:24.472Z,174.70
2023-01-01T03:03:25.312Z,224.47
2023-01-01T03:06:27.228Z,266.13
2023-01-01T03:09:17.013Z,240.87
2023-01-01T03:12:05.659Z,243.63
2023-01-01T03:14:56.483Z,218.70
2023-01-01T03:17:32.836Z,196.30
2023-01-01T03:20:05.049Z,205.97
2023-01-01T03:25:20.540Z,195.90
2023-01-01T03:27:57.087Z,232.30
2023-01-01T03:30:24.522Z,236.80
2023-01-01T03:33:03.718Z,218.50
2023-01-01T03:35:53.925Z,188.57
2023-01-01T03:38:38.580Z,201.67
2023-01-01T03:41:11.510Z,176.10
2023-01-01T03:43:54.391Z,172.00
2023-01-01T03:46:26.098Z,151.80
2023-01-01T03:49:02.697Z,131.43
2023-01-01T03:51:39.215Z,146.10
2023-01-01T03:54:36.748Z,210.25
2023-01-01T03:57:37.169Z,213.30
2023-01-01T04:00:11.372Z,192.95
2023-01-01T04:02:49.896Z,203.45
2023-01-01T04:05:18.806Z,204.23
2023-01-01T04:10:17.570Z,159.55
2023-01-01T04:12:49.029Z,142.38
2023-01-01T04:15:21.903Z,135.45
2023-01-01T04:17:48.682Z,114.60
2023-01-01T04:20:16.107Z,117.28
2023-01-01T04:22:43.213Z,105.97
2023-01-01T04:25:11.221Z,89.35
2023-01-01T04:27:39.447Z,75.55
2023-01-01T04:30:09.141Z,58.65
2023-01-01T04:32:35.828Z,67.82
2023-01-01T04:35:02.543Z,64.15
2023-01-01T04:37:29.242Z,69.85
2023-01-01T04:39:56.005Z,69.57
2023-01-01T04:42:22.789Z,67.13
2023-01-01T04:44:49.516Z,66.63
2023-01-01T04:47:16.212Z,68.90
2023-01-01T04:49:42.985Z,66.35
2023-01-01T04:52:09.739Z,62.33
2023-01-01T04:54:36.579Z,58.20
2023-01-01T04:57:03.432Z,58.58
2023-01-01T04:59:31.233Z,51.67
2023-01-01T05:01:58.699Z,53.20
